Pagina principale
METAR-TAF:

METAR-TAF

Aeroporti :

Aeroporto di Gyumri

Gyumri, Armenia

latitudine: 40-45-01N, longitudine: 043-51-33E, altezza: 1524 m

Osservazione

Il bollettino è stato emesso 34 minuti fa, alle 03:30 UTC
Vento calmo
Temperature 3°C
Umidità 93%
Pressione 1003 hPa
Visibilità 10 km o più
Nuvoloso ad un'altezza di 3300 ft

METAR: UDSG 300330Z 00000KT 9999 BKN033 03/02 Q1003 R02/29//55 NOSIG

Ora: 08:04 (04:04 UTC)

Previsione

Il bollettino è stato emesso 5 ore e 1 minuti fa, alle 23:03 UTC
Previsione valida dal 30 alle 00 UTC al 30 alle 24 UTC
Vento 6 kt da ovest/sud-ovest
Visibilità 10 km o più
Nuvoloso ad un'altezza di 4000 ft
Temporaneamente
dal 30 alle 00 UTC al 30 alle 06 UTC
Visibilità: 5000 m
Cielo coperto ad un'altezza di 3000 ft
pioggia debole, foschia

TAF: UDSG 292303Z 3000/3024 24006KT 9999 BKN040 TEMPO 3000/3006 5000 -RA BR OVC030

Osservazioni e previsioni meteorologiche di più di 4000 aeroporti (messaggi METAR e TAF).

Le stazioni disponibili sono rappresentate dai dischi gialli e rossi sulla carta.

Puntare il mouse per vedere il nome della stazione.

Clicca sopra per visualizzare le osservazioni e previsioni meteorologiche.

Per cambiare la mappa : fare clic sui pulsanti verdi con una croce nera per ingrandire, il pulsante verde con un trattino per diminuire, o sulla freccia verde per le mappe adiacenti.


METAR-TAF: